Toledo/Metcalf Field, Ohio
Current Conditions -  °F | °C
As of 11:53 PM on Friday 24 Oct 2014 (Local Time) from KTDZ Reporting Station
Few Clouds Few Clouds  
Wind Chill: 49°   Ceiling: Unl
Heat Index: 49°   Visibility: 9mi
Dew Point: 44°   Wind: 3mph
Humidity: 83%   Direction: 220°SW
Pressure: 29.99"   Gusts: NA
Location:  41.56°N, 83.48°W
Report Text: KTDZ 250353Z AUTO 22003KT 9SM FEW044 09/07 A2999 RMK AO2 SLP154 T00940067 TSNO
Loading
Personal Weather Stations






























Interactive Weather Map
Tropical Storm Tracking
New forecast layout! Learn more

10-Day Weather Forecast

Advertisements
Track Severe Weather on mobile